Time;durP1;ratioP1;P1;durP2;ratioP2;P2;SDS_P1;SDS_P2;PMS_P1;PMS_P2;Temp;Humidity;BMP_temperature;BMP_pressure;BME280_temperature;BME280_humidity;BME280_pressure;Samples;Min_cycle;Max_cycle;Signal;HPM_P1;HPM_P2
2021/04/05 00:00:40;;;;;;;7.42;4.05;;;;;;;3.49;61.52;100103.20;1678853;84;21789;-75
2021/04/05 00:03:07;;;;;;;11.65;4.40;;;;;;;3.47;61.61;100096.80;1674245;83;21157;-75
2021/04/05 00:05:38;;;;;;;9.70;4.58;;;;;;;3.48;61.74;100095.10;1676063;83;21449;-75
2021/04/05 00:08:05;;;;;;;11.15;4.05;;;;;;;3.48;61.79;100095.95;1673235;84;21123;-76
2021/04/05 00:10:45;;;;;;;10.32;4.72;;;;;;;3.50;61.81;100087.02;1663828;84;21142;-76
2021/04/05 00:13:16;;;;;;;10.35;4.17;;;;;;;3.48;61.84;100079.34;1644974;86;21142;-76
2021/04/05 00:15:45;;;;;;;8.55;4.17;;;;;;;3.48;61.90;100069.12;1676218;84;21020;-76
2021/04/05 00:18:15;;;;;;;8.08;4.53;;;;;;;3.50;61.98;100062.31;1667062;84;21517;-76
2021/04/05 00:20:49;;;;;;;8.13;4.28;;;;;;;3.52;62.05;100059.77;1670563;84;21163;-76
2021/04/05 00:23:16;;;;;;;12.30;5.45;;;;;;;3.52;62.10;100060.62;1667717;84;21157;-76
2021/04/05 00:25:42;;;;;;;11.68;5.37;;;;;;;3.55;62.14;100044.44;1672969;84;20960;-76
2021/04/05 00:28:09;;;;;;;12.40;4.90;;;;;;;3.56;62.21;100043.16;1666063;84;21119;-75
2021/04/05 00:30:37;;;;;;;10.20;4.67;;;;;;;3.57;62.26;100032.09;1668637;84;21117;-76
2021/04/05 00:33:05;;;;;;;9.65;5.33;;;;;;;3.59;62.31;100027.84;1674316;84;21012;-76
2021/04/05 00:35:35;;;;;;;10.03;4.42;;;;;;;3.59;62.37;100024.00;1677570;84;21139;-76
2021/04/05 00:38:06;;;;;;;11.73;5.30;;;;;;;3.59;62.31;100019.31;1682991;83;21150;-76
2021/04/05 00:40:49;;;;;;;11.70;4.50;;;;;;;3.56;62.37;100017.61;1675253;84;21139;-76
2021/04/05 00:43:18;;;;;;;13.08;5.40;;;;;;;3.55;62.46;100017.17;1674344;84;21158;-76
2021/04/05 00:45:46;;;;;;;8.05;4.42;;;;;;;3.55;62.48;100012.48;1673590;84;21142;-76
2021/04/05 00:48:16;;;;;;;14.47;4.80;;;;;;;3.53;62.51;100007.80;1661712;85;21011;-76
2021/04/05 00:50:53;;;;;;;12.68;5.50;;;;;;;3.50;62.55;99997.14;1672820;84;21166;-76
2021/04/05 00:53:39;;;;;;;8.88;5.03;;;;;;;3.46;62.56;99969.02;1680583;84;21126;-76
2021/04/05 00:56:07;;;;;;;14.25;5.45;;;;;;;3.40;62.63;99951.96;1665795;83;592017;-76
2021/04/05 00:58:35;;;;;;;9.18;5.37;;;;;;;3.35;62.65;99937.05;1669686;84;21145;-76
2021/04/05 01:01:08;;;;;;;14.47;5.83;;;;;;;3.32;62.74;99948.53;1679897;83;24907;-76
2021/04/05 01:03:39;;;;;;;17.10;5.33;;;;;;;3.26;62.71;99943.41;1681196;84;21134;-76
2021/04/05 01:06:13;;;;;;;18.62;6.65;;;;;;;3.20;62.73;99945.52;1673289;84;21245;-76
2021/04/05 01:08:40;;;;;;;18.20;6.40;;;;;;;3.15;62.86;99933.16;1679527;84;21202;-76
2021/04/05 01:11:09;;;;;;;18.32;6.97;;;;;;;3.11;62.89;99921.68;1670234;84;21630;-76
2021/04/05 01:13:35;;;;;;;11.48;6.25;;;;;;;3.09;63.00;99910.60;1679833;84;21277;-76
2021/04/05 01:16:05;;;;;;;17.23;7.17;;;;;;;3.07;62.97;99907.19;1675485;84;21214;-76
2021/04/05 01:18:31;;;;;;;12.70;6.35;;;;;;;3.05;63.04;99894.42;1677845;83;21269;-76
2021/04/05 01:20:59;;;;;;;9.83;6.08;;;;;;;3.04;63.06;99886.75;1681528;83;21214;-76
2021/04/05 01:23:32;;;;;;;14.63;7.05;;;;;;;3.02;63.12;99879.09;1674964;84;21205;-77
2021/04/05 01:25:58;;;;;;;14.38;6.72;;;;;;;3.01;63.17;99865.03;1672911;83;21209;-76
2021/04/05 01:28:25;;;;;;;13.85;6.75;;;;;;;2.97;63.22;99862.90;1680021;84;21218;-76
2021/04/05 01:30:53;;;;;;;;;;;;;;;2.95;63.26;99860.34;1671211;84;21301;-76
2021/04/05 01:33:30;;;;;;;16.67;7.15;;;;;;;2.92;63.52;99866.71;1643891;86;20198;-75
2021/04/05 01:36:04;;;;;;;16.07;7.47;;;;;;;2.89;63.33;99870.53;1665270;84;21142;-75
2021/04/05 01:38:43;;;;;;;16.50;6.55;;;;;;;2.87;63.41;99867.12;1613613;83;5000457;-75
2021/04/05 01:41:22;;;;;;;15.48;6.53;;;;;;;2.86;63.45;99863.29;1644418;84;21146;-75
2021/04/05 01:43:49;;;;;;;20.43;7.80;;;;;;;2.84;63.52;99862.43;1669307;84;21150;-75
2021/04/05 01:46:18;;;;;;;14.07;7.00;;;;;;;2.83;63.60;99849.23;1639907;84;21130;-76
2021/04/05 01:48:45;;;;;;;11.63;6.70;;;;;;;2.81;63.64;99840.72;1673406;84;21150;-76
2021/04/05 01:51:14;;;;;;;;;;;;;;;2.79;63.70;99825.83;1657090;84;21154;-76
2021/04/05 01:53:42;;;;;;;10.93;5.58;;;;;;;2.80;63.95;99815.62;1673600;84;20259;-76
2021/04/05 01:56:12;;;;;;;13.93;6.72;;;;;;;2.79;63.86;99800.30;1656408;84;315551;-76
2021/04/05 01:58:41;;;;;;;14.33;7.62;;;;;;;2.79;63.87;99799.87;1673610;84;21126;-76
2021/04/05 02:01:12;;;;;;;13.53;7.35;;;;;;;2.81;63.95;99799.88;1647499;84;21158;-75
2021/04/05 02:03:40;;;;;;;15.78;7.83;;;;;;;2.81;63.94;99804.55;1675650;84;21128;-75
2021/04/05 02:06:23;;;;;;;18.95;8.05;;;;;;;2.82;64.05;99803.70;1681639;84;21135;-75
2021/04/05 02:08:51;;;;;;;14.58;7.65;;;;;;;2.83;64.09;99802.00;1676714;84;21155;-75
2021/04/05 02:11:24;;;;;;;9.28;5.92;;;;;;;2.86;64.17;99799.46;1686720;83;21437;-75
2021/04/05 02:13:54;;;;;;;12.95;7.08;;;;;;;2.88;64.21;99789.67;1668513;84;21170;-76
2021/04/05 02:16:22;;;;;;;12.82;6.80;;;;;;;2.88;64.25;99770.53;1673000;84;21135;-76
2021/04/05 02:18:51;;;;;;;12.58;7.60;;;;;;;2.91;64.29;99755.64;1670715;84;21127;-76
2021/04/05 02:21:20;;;;;;;13.48;7.55;;;;;;;2.93;64.34;99756.49;1678169;84;21194;-76
2021/04/05 02:23:49;;;;;;;18.32;7.80;;;;;;;2.94;64.40;99742.87;1662744;84;21134;-76
2021/04/05 02:26:23;;;;;;;14.93;7.75;;;;;;;2.97;64.45;99739.05;1670971;84;21182;-76
2021/04/05 02:28:53;;;;;;;16.60;8.05;;;;;;;2.98;64.49;99738.20;1675259;84;21158;-76
2021/04/05 02:31:22;;;;;;;16.15;8.15;;;;;;;3.02;64.55;99722.45;1662577;84;21150;-76
2021/04/05 02:33:52;;;;;;;10.90;8.43;;;;;;;3.03;64.57;99709.69;1672983;83;21139;-76
2021/04/05 02:36:23;;;;;;;15.20;8.00;;;;;;;3.04;64.54;99696.06;1669492;84;21102;-76
2021/04/05 02:38:56;;;;;;;12.30;7.83;;;;;;;3.07;64.71;99691.38;1674567;84;21149;-76
2021/04/05 02:41:29;;;;;;;14.07;7.78;;;;;;;3.07;64.66;99675.63;1670451;84;21269;-76
2021/04/05 02:43:56;;;;;;;14.43;7.97;;;;;;;3.11;64.78;99682.87;1675096;84;21170;-76
2021/04/05 02:46:33;;;;;;;12.20;8.55;;;;;;;3.13;64.83;99671.77;1672355;84;21201;-76
2021/04/05 02:49:08;;;;;;;18.75;7.40;;;;;;;3.15;64.87;99663.67;1650053;84;21206;-76
2021/04/05 02:51:35;;;;;;;9.95;7.22;;;;;;;3.18;64.96;99655.16;1669019;84;21225;-76
2021/04/05 02:54:03;;;;;;;9.85;7.00;;;;;;;3.21;64.97;99658.56;1676155;84;21217;-76
2021/04/05 02:56:38;;;;;;;13.90;7.20;;;;;;;3.23;64.97;99644.50;1668725;84;21167;-76
2021/04/05 02:59:04;;;;;;;11.65;7.10;;;;;;;3.26;65.05;99641.95;1671133;84;21225;-76
2021/04/05 03:01:32;;;;;;;11.25;7.75;;;;;;;3.28;65.11;99634.70;1666623;84;21206;-76
2021/04/05 03:04:03;;;;;;;14.18;8.10;;;;;;;3.31;65.15;99627.03;1660124;84;21194;-77
2021/04/05 03:06:30;;;;;;;15.95;8.75;;;;;;;3.34;65.19;99612.13;1646556;86;21947;-76
2021/04/05 03:09:01;;;;;;;10.08;7.87;;;;;;;3.38;65.25;99611.69;1651349;86;21232;-76
2021/04/05 03:11:27;;;;;;;13.48;8.90;;;;;;;3.40;65.25;99592.09;1677088;84;21229;-76
2021/04/05 03:13:54;;;;;;;14.35;8.33;;;;;;;3.42;65.23;99587.83;1677671;84;21228;-76
2021/04/05 03:16:23;;;;;;;12.10;8.18;;;;;;;3.43;65.26;99578.88;1670059;84;21151;-76
2021/04/05 03:18:52;;;;;;;9.98;7.90;;;;;;;3.44;65.33;99570.35;1678354;84;21551;-76
2021/04/05 03:21:21;;;;;;;10.90;8.30;;;;;;;3.44;65.36;99575.89;1675665;84;21169;-76
2021/04/05 03:23:50;;;;;;;11.03;7.75;;;;;;;3.45;65.38;99559.70;1677792;84;21521;-76
2021/04/05 03:26:17;;;;;;;;;;;;;;;3.46;65.44;99556.30;1667392;84;21281;-76
2021/04/05 03:28:43;;;;;;;11.10;8.35;;;;;;;3.44;65.63;99540.97;1648216;86;20267;-76
2021/04/05 03:31:18;;;;;;;12.15;8.73;;;;;;;3.43;65.54;99534.58;1671790;84;21166;-76
2021/04/05 03:33:58;;;;;;;14.60;9.00;;;;;;;3.44;65.53;99533.73;1698528;83;21025;-76
2021/04/05 03:36:46;;;;;;;13.62;8.00;;;;;;;3.44;65.63;99527.34;1700243;83;21142;-76
2021/04/05 03:39:15;;;;;;;16.40;9.00;;;;;;;3.43;65.67;99509.88;1693056;83;21122;-76
2021/04/05 03:42:15;;;;;;;15.83;9.43;;;;;;;3.45;65.71;99500.94;1703765;83;21147;-76
2021/04/05 03:45:17;;;;;;;14.40;8.88;;;;;;;3.45;65.76;99488.16;1687936;83;21162;-76
2021/04/05 03:48:38;;;;;;;14.38;8.85;;;;;;;3.45;65.76;99482.62;1681791;83;21135;-76
2021/04/05 03:51:25;;;;;;;11.85;8.43;;;;;;;3.44;65.78;99480.91;1638877;86;21210;-76
2021/04/05 03:53:58;;;;;;;13.88;8.73;;;;;;;3.45;65.91;99485.17;1677580;84;21116;-76
2021/04/05 03:56:43;;;;;;;14.95;9.15;;;;;;;3.47;65.94;99483.89;1668170;84;21119;-76
2021/04/05 03:59:38;;;;;;;12.40;8.70;;;;;;;3.47;65.96;99484.73;1671834;85;21116;-76
2021/04/05 04:07:39;;;;;;;18.67;9.60;;;;;;;3.45;66.02;99466.44;1786713;77;21118;-75
2021/04/05 04:10:11;;;;;;;13.95;8.80;;;;;;;3.45;66.06;99477.94;1823008;77;20944;-75
2021/04/05 04:12:42;;;;;;;14.45;9.43;;;;;;;3.44;66.10;99473.68;1819785;77;20956;-76
2021/04/05 04:15:11;;;;;;;13.08;9.13;;;;;;;3.42;66.15;99466.45;1840290;77;20968;-76
2021/04/05 04:17:38;;;;;;;16.15;9.48;;;;;;;3.42;66.09;99462.19;1812055;77;21400;-76
2021/04/05 04:20:08;;;;;;;16.20;9.83;;;;;;;3.41;66.18;99458.37;1824831;77;21028;-76
2021/04/05 04:22:35;;;;;;;13.53;8.53;;;;;;;3.39;66.22;99469.88;1765173;77;21090;-76
2021/04/05 04:25:02;;;;;;;16.30;9.83;;;;;;;3.39;66.26;99467.31;1768188;79;21065;-76
2021/04/05 04:27:30;;;;;;;18.98;9.13;;;;;;;3.36;66.27;99457.11;1765965;79;21055;-76
2021/04/05 04:29:57;;;;;;;16.12;9.05;;;;;;;3.33;66.27;99451.59;1768762;79;21203;-76
2021/04/05 04:32:25;;;;;;;15.75;9.50;;;;;;;3.33;66.36;99443.92;1740087;79;21428;-76
2021/04/05 04:34:52;;;;;;;14.98;8.88;;;;;;;3.33;66.36;99434.98;1671933;80;5000573;-76
2021/04/05 04:37:18;;;;;;;12.75;9.13;;;;;;;3.33;66.42;99442.65;1755825;80;21218;-77
2021/04/05 04:39:45;;;;;;;;;;;;;;;3.33;66.41;99436.69;1744241;81;21101;-76
2021/04/05 04:42:12;;;;;;;11.33;7.87;;;;;;;3.35;66.64;99443.92;1702043;84;20306;-76
2021/04/05 04:44:39;;;;;;;15.18;9.68;;;;;;;3.35;66.56;99430.30;1741769;82;21156;-76
2021/04/05 04:47:06;;;;;;;15.43;9.20;;;;;;;3.35;66.56;99429.86;1740323;82;21706;-76
2021/04/05 04:49:31;;;;;;;;;;;;;;;3.38;66.62;99422.61;1741067;82;21513;-76
2021/04/05 04:52:07;;;;;;;12.98;8.10;;;;;;;3.38;66.80;99413.67;1741693;82;20318;-76
2021/04/05 04:54:33;;;;;;;13.03;8.85;;;;;;;3.38;66.59;99408.56;1738251;81;27017;-76
2021/04/05 04:57:00;;;;;;;13.62;7.92;;;;;;;3.38;66.71;99390.67;1742036;82;21466;-76
2021/04/05 04:59:28;;;;;;;16.55;9.50;;;;;;;3.40;66.70;99376.19;1741758;80;21180;-76
2021/04/05 05:01:55;;;;;;;11.88;8.80;;;;;;;3.39;66.71;99367.67;1740707;80;21203;-76
2021/04/05 05:04:30;;;;;;;15.15;8.95;;;;;;;3.43;66.75;99354.44;1736982;80;21187;-76
2021/04/05 05:07:00;;;;;;;13.30;8.63;;;;;;;3.42;66.79;99350.19;1737732;82;21235;-76
2021/04/05 05:09:39;;;;;;;19.10;9.90;;;;;;;3.45;66.84;99343.78;1730841;82;21194;-76
2021/04/05 05:12:06;;;;;;;;;;;;;;;3.47;66.90;99342.91;1740029;82;21222;-76
2021/04/05 05:14:33;;;;;;;15.83;9.55;;;;;;;3.51;67.10;99343.30;1698597;84;20256;-75
2021/04/05 05:16:59;;;;;;;16.67;8.68;;;;;;;3.53;66.98;99333.92;1734730;81;21133;-76
2021/04/05 05:19:29;;;;;;;13.65;8.68;;;;;;;3.55;66.97;99335.19;1733665;81;21135;-76
2021/04/05 05:21:59;;;;;;;;;;;;;;;3.59;67.00;99332.59;1736639;82;20977;-76
2021/04/05 05:24:45;;;;;;;14.35;8.70;;;;;;;3.62;67.17;99326.17;1728150;81;20268;-76
2021/04/05 05:27:30;;;;;;;;;;;;;;;3.68;67.09;99318.86;1725761;81;21524;-76
2021/04/05 05:30:22;;;;;;;20.00;8.93;;;;;;;3.73;67.27;99309.86;1729482;80;20185;-76
2021/04/05 05:33:09;;;;;;;15.83;10.53;;;;;;;3.79;67.19;99298.30;1729866;82;21031;-76
2021/04/05 05:35:53;;;;;;;;;;;;;;;3.84;67.14;99292.28;1736931;81;21599;-76
2021/04/05 05:38:39;;;;;;;18.30;9.10;;;;;;;3.89;67.28;99301.19;1727441;81;20419;-76
2021/04/05 05:41:57;;;;;;;19.27;10.05;;;;;;;3.95;67.20;99304.96;1739637;80;21138;-76
2021/04/05 05:45:06;;;;;;;14.58;8.78;;;;;;;4.01;67.28;99306.18;1727896;81;21770;-76
2021/04/05 05:48:26;;;;;;;17.35;10.23;;;;;;;4.14;67.26;99296.66;1718802;81;21722;-77
2021/04/05 05:51:51;;;;;;;15.78;8.70;;;;;;;4.23;67.30;99273.50;1719550;82;21750;-77
2021/04/05 05:55:13;;;;;;;14.45;9.45;;;;;;;4.38;67.33;99269.91;1706963;81;21679;-77
2021/04/05 05:57:52;;;;;;;15.70;8.83;;;;;;;4.47;67.19;99287.28;1730047;81;21205;-77
2021/04/05 06:00:29;;;;;;;13.68;9.40;;;;;;;4.55;67.21;99261.59;1729010;81;22275;-77
2021/04/05 06:03:14;;;;;;;18.80;10.55;;;;;;;4.61;67.26;99242.31;1728194;82;21250;-77
2021/04/05 06:06:19;;;;;;;23.57;10.75;;;;;;;4.66;67.24;99234.13;1727302;81;21217;-77
2021/04/05 06:09:29;;;;;;;13.38;9.13;;;;;;;4.69;67.23;99231.92;1700150;82;21214;-77
2021/04/05 06:12:16;;;;;;;30.43;10.30;;;;;;;4.73;67.22;99233.14;1731013;81;21186;-77
2021/04/05 06:15:27;;;;;;;238.62;24.25;;;;;;;4.76;67.24;99226.70;1731795;82;21483;-77
2021/04/05 06:18:14;;;;;;;;;;;;;;;4.82;67.31;99229.17;1731437;82;21246;-77
2021/04/05 06:20:58;;;;;;;23.22;10.53;;;;;;;4.81;67.28;99221.08;1731788;82;20686;-77
2021/04/05 06:23:53;;;;;;;13.40;9.05;;;;;;;4.84;67.34;99203.10;1705552;80;1994193;-77
2021/04/05 06:26:56;;;;;;;17.73;9.78;;;;;;;4.90;67.33;99188.08;1738887;80;22305;-77
2021/04/05 06:30:02;;;;;;;17.90;10.28;;;;;;;4.95;67.36;99178.60;1734646;82;21179;-77
2021/04/05 06:32:50;;;;;;;22.60;11.57;;;;;;;5.04;67.42;99164.36;1733452;80;21237;-79
2021/04/05 06:35:39;;;;;;;15.32;10.13;;;;;;;5.11;67.32;99155.70;1737199;82;21191;-75
2021/04/05 06:38:28;;;;;;;17.10;10.30;;;;;;;5.19;67.34;99150.45;1732670;82;21086;-78
2021/04/05 06:40:59;;;;;;;16.65;9.98;;;;;;;5.26;67.28;99150.72;1726331;82;21165;-77
2021/04/05 06:44:24;;;;;;;17.15;9.90;;;;;;;5.31;67.29;99155.32;1733713;82;22081;-77
2021/04/05 06:47:45;;;;;;;20.97;10.82;;;;;;;5.40;67.34;99151.75;1732084;82;21260;-77
2021/04/05 06:50:35;;;;;;;20.45;10.68;;;;;;;5.47;67.25;99131.09;1727759;82;21199;-75
2021/04/05 06:53:29;;;;;;;22.62;10.90;;;;;;;5.52;67.28;99129.29;1724910;82;21175;-75
2021/04/05 06:55:57;;;;;;;25.35;11.68;;;;;;;5.59;67.24;99110.34;1727435;80;21183;-75
2021/04/05 06:59:00;;;;;;;16.70;10.60;;;;;;;5.58;67.17;99118.08;1739724;82;21037;-75
2021/04/05 07:01:37;;;;;;;20.90;10.72;;;;;;;5.60;67.15;99096.66;1690332;82;21261;-76
2021/04/05 07:04:41;;;;;;;19.30;10.48;;;;;;;5.61;67.19;99089.81;1728975;80;21215;-76
2021/04/05 07:07:32;;;;;;;21.65;10.93;;;;;;;5.67;67.22;99091.41;1740161;81;21198;-75
2021/04/05 07:10:21;;;;;;;23.25;12.18;;;;;;;5.71;67.18;99110.98;1732900;82;21166;-75
2021/04/05 07:13:12;;;;;;;19.50;10.48;;;;;;;5.73;67.17;99095.94;1742003;82;21092;-75
2021/04/05 07:16:11;;;;;;;21.65;10.90;;;;;;;5.80;67.20;99097.50;1742204;81;21006;-75
2021/04/05 07:19:20;;;;;;;22.05;11.10;;;;;;;5.85;67.17;99080.73;1741620;82;21382;-75
2021/04/05 07:22:34;;;;;;;23.92;11.50;;;;;;;5.86;67.12;99070.44;1723133;81;21874;-75
2021/04/05 07:25:26;;;;;;;18.27;10.65;;;;;;;5.90;67.15;99080.23;1742149;81;21140;-75
2021/04/05 07:28:10;;;;;;;21.20;11.38;;;;;;;5.93;67.08;99056.63;1732592;81;21410;-75
2021/04/05 07:30:46;;;;;;;18.98;10.68;;;;;;;5.96;67.11;99059.57;1742205;81;21143;-75
2021/04/05 07:33:39;;;;;;;29.30;12.65;;;;;;;5.95;67.07;99058.73;1745983;81;20913;-75
2021/04/05 07:36:44;;;;;;;21.97;12.10;;;;;;;5.95;67.07;99042.48;1745576;81;20934;-75
2021/04/05 07:39:37;;;;;;;18.23;9.93;;;;;;;5.96;67.16;99042.45;1736775;82;21580;-76
2021/04/05 07:42:39;;;;;;;18.95;11.33;;;;;;;6.03;67.07;99039.75;1739838;80;21390;-76
2021/04/05 07:45:10;;;;;;;22.40;10.95;;;;;;;6.07;67.06;99037.52;1739869;82;21782;-76
2021/04/05 07:48:04;;;;;;;21.27;11.75;;;;;;;6.09;67.03;99030.63;1742886;81;21485;-76
2021/04/05 07:51:18;;;;;;;21.65;11.57;;;;;;;6.13;67.07;99034.81;1743813;81;21517;-76
2021/04/05 07:54:05;;;;;;;19.62;10.75;;;;;;;6.19;67.06;99005.16;1744291;81;20978;-76
2021/04/05 07:56:51;;;;;;;19.50;9.98;;;;;;;6.26;67.03;98993.83;1744904;81;21441;-76
2021/04/05 08:00:00;;;;;;;19.20;10.48;;;;;;;6.30;66.94;99006.55;1737194;81;21139;-76
2021/04/05 08:03:02;;;;;;;25.05;10.13;;;;;;;6.33;66.98;99006.92;1737543;82;21828;-76
2021/04/05 08:05:40;;;;;;;33.65;11.80;;;;;;;6.38;66.91;98975.56;1743087;82;21114;-76
2021/04/05 08:08:43;;;;;;;19.07;10.28;;;;;;;6.42;66.94;98997.71;1742323;82;21529;-76
2021/04/05 08:11:39;;;;;;;22.25;11.50;;;;;;;6.47;66.93;99003.58;1734822;82;21399;-76
2021/04/05 08:14:36;;;;;;;21.07;10.45;;;;;;;6.53;66.96;99010.28;1740537;82;21406;-76
2021/04/05 08:17:20;;;;;;;19.42;10.00;;;;;;;6.59;66.89;98989.58;1738613;82;21920;-75
2021/04/05 08:20:00;;;;;;;16.95;9.43;;;;;;;6.63;66.87;98988.63;1739561;81;20957;-75
2021/04/05 08:22:50;;;;;;;16.27;10.30;;;;;;;6.67;66.87;98996.64;1747628;81;21449;-75
2021/04/05 08:25:56;;;;;;;20.35;9.70;;;;;;;6.71;66.78;98988.42;1749774;81;21517;-75
2021/04/05 08:28:40;;;;;;;16.60;9.15;;;;;;;6.74;66.81;98977.63;1728681;81;22306;-76
2021/04/05 08:32:12;;;;;;;21.33;9.70;;;;;;;6.79;66.81;98959.48;1742289;81;21231;-74
2021/04/05 08:35:28;;;;;;;22.13;9.73;;;;;;;6.82;66.77;98960.69;1731013;82;21639;-74
2021/04/05 08:38:27;;;;;;;20.17;9.90;;;;;;;6.84;66.73;98954.63;1739911;81;21211;-76
2021/04/05 08:41:38;;;;;;;20.60;9.98;;;;;;;6.87;66.70;98945.99;1729275;82;21993;-76
2021/04/05 08:44:25;;;;;;;21.93;10.70;;;;;;;6.92;66.70;98938.56;1739667;82;21712;-75
2021/04/05 08:46:54;;;;;;;;;;;;;;;7.00;66.74;98954.20;1745345;82;21411;-75
2021/04/05 08:49:22;;;;;;;21.48;10.08;;;;;;;7.10;66.63;98941.05;1703687;83;20443;-76
2021/04/05 08:51:55;;;;;;;23.27;10.58;;;;;;;7.18;66.67;98937.82;1699498;84;21153;-76
2021/04/05 08:54:28;;;;;;;20.77;9.55;;;;;;;7.27;66.66;98930.28;1674488;84;21115;-75
2021/04/05 08:56:58;;;;;;;29.00;10.88;;;;;;;7.38;66.69;98926.92;1677964;84;21126;-76
2021/04/05 08:59:36;;;;;;;26.35;11.25;;;;;;;7.51;66.61;98932.09;1700375;83;21500;-76
2021/04/05 09:02:45;;;;;;;15.58;9.53;;;;;;;7.60;66.52;98932.25;1700303;84;21207;-76
2021/04/05 09:05:32;;;;;;;24.82;9.78;;;;;;;7.70;66.51;98925.94;1691183;82;21618;-76
2021/04/05 09:08:21;;;;;;;23.30;11.38;;;;;;;7.78;66.49;98921.84;1739293;80;21200;-76
2021/04/05 09:11:07;;;;;;;20.02;9.95;;;;;;;7.82;66.35;98923.39;1716024;82;21542;-76
2021/04/05 09:13:58;;;;;;;;;;;;;;;7.87;66.41;98923.64;1742679;82;21259;-76
2021/04/05 09:17:13;;;;;;;24.43;10.88;;;;;;;7.93;66.33;98917.02;1730398;82;20302;-76
2021/04/05 09:20:18;;;;;;;29.92;11.53;;;;;;;8.03;66.41;98912.41;1733815;80;21207;-76
2021/04/05 09:23:34;;;;;;;22.25;10.98;;;;;;;8.08;66.23;98900.67;1735483;81;21721;-76
2021/04/05 09:26:41;;;;;;;17.80;10.65;;;;;;;8.12;66.29;98902.25;1714694;80;21754;-75
2021/04/05 09:30:03;;;;;;;26.07;10.78;;;;;;;8.16;66.14;98884.08;1744717;81;21188;-75
2021/04/05 09:33:17;;;;;;;24.02;10.35;;;;;;;8.18;66.19;98908.48;1734046;80;21183;-75
2021/04/05 09:36:31;;;;;;;15.43;9.23;;;;;;;8.17;66.10;98878.48;1739287;81;22245;-75
2021/04/05 09:39:46;;;;;;;23.22;10.08;;;;;;;8.15;66.13;98903.44;1739624;81;21497;-76
2021/04/05 09:43:08;;;;;;;19.52;10.60;;;;;;;8.14;66.12;98895.33;1686269;81;21220;-76
2021/04/05 09:46:32;;;;;;;29.00;11.03;;;;;;;8.15;66.11;98883.69;1740096;81;21167;-75
2021/04/05 09:49:46;;;;;;;22.75;11.45;;;;;;;8.17;66.12;98898.63;1724754;81;21703;-74
2021/04/05 09:53:04;;;;;;;21.90;10.48;;;;;;;8.18;66.05;98884.88;1736620;81;21049;-74
2021/04/05 09:55:56;;;;;;;21.42;10.10;;;;;;;8.17;66.01;98896.06;1658243;85;21230;-74
2021/04/05 09:58:58;;;;;;;21.87;10.90;;;;;;;8.16;66.09;98899.97;1727541;81;22200;-73
2021/04/05 10:01:47;;;;;;;22.67;11.75;;;;;;;8.13;66.18;98903.94;1737087;81;21243;-73
2021/04/05 10:04:34;;;;;;;24.60;11.57;;;;;;;8.03;66.17;98890.53;1729978;81;21029;-73
2021/04/05 10:07:20;;;;;;;17.98;10.82;;;;;;;7.92;66.36;98890.88;1736707;81;21239;-73
2021/04/05 10:10:08;;;;;;;23.32;12.23;;;;;;;7.81;66.42;98902.41;1740389;80;21192;-73
2021/04/05 10:12:56;;;;;;;18.62;10.98;;;;;;;7.74;66.59;98905.66;1730483;81;21600;-73
2021/04/05 10:15:44;;;;;;;17.85;11.70;;;;;;;7.69;66.58;98903.67;1744057;81;21228;-73
2021/04/05 10:18:31;;;;;;;24.40;12.13;;;;;;;7.58;66.66;98909.59;1739260;80;21648;-73
2021/04/05 10:21:15;;;;;;;;;;;;;;;7.51;66.80;98908.95;1739321;80;21239;-73
2021/04/05 10:24:02;;;;;;;19.82;10.58;;;;;;;7.46;67.03;98906.96;1739534;80;20318;-73
2021/04/05 10:26:48;;;;;;;;;;;;;;;7.40;67.06;98896.02;1740625;80;21219;-73
2021/04/05 10:29:35;;;;;;;25.97;12.98;;;;;;;7.34;67.22;98901.34;1737136;82;20273;-73
2021/04/05 10:32:26;;;;;;;22.60;12.40;;;;;;;7.33;67.32;98909.50;1739315;80;21171;-73
2021/04/05 10:35:15;;;;;;;21.12;12.28;;;;;;;7.28;67.23;98903.66;1740691;81;21223;-73
2021/04/05 10:38:04;;;;;;;21.50;12.75;;;;;;;7.25;67.43;98900.77;1739752;82;21430;-73
2021/04/05 10:40:53;;;;;;;19.75;11.78;;;;;;;7.23;67.47;98907.68;1736076;82;21188;-73
2021/04/05 10:43:55;;;;;;;21.10;11.97;;;;;;;7.21;67.57;98908.61;1744283;81;21187;-73
2021/04/05 10:46:45;;;;;;;28.95;12.78;;;;;;;7.22;67.61;98910.30;1732544;81;21203;-73
2021/04/05 10:49:33;;;;;;;22.82;12.93;;;;;;;7.21;67.61;98908.17;1735658;81;21235;-73
2021/04/05 10:52:28;;;;;;;24.72;13.58;;;;;;;7.19;67.87;98918.09;1719626;82;21194;-74
2021/04/05 10:55:23;;;;;;;19.80;12.80;;;;;;;7.13;67.77;98904.98;1737730;82;21656;-73
2021/04/05 10:58:13;;;;;;;19.87;12.53;;;;;;;7.09;67.90;98909.81;1732238;81;21246;-73
2021/04/05 11:01:02;;;;;;;18.35;11.25;;;;;;;7.03;67.86;98907.42;1738934;81;21251;-73
2021/04/05 11:03:50;;;;;;;17.27;11.40;;;;;;;6.97;67.93;98903.74;1715926;81;21227;-73
2021/04/05 11:06:36;;;;;;;18.48;12.60;;;;;;;6.93;67.97;98909.41;1736263;80;21210;-73
2021/04/05 11:09:24;;;;;;;17.57;11.38;;;;;;;6.89;68.07;98906.53;1733541;82;21293;-73
2021/04/05 11:12:12;;;;;;;23.40;12.45;;;;;;;6.84;67.99;98902.41;1737967;82;21691;-73
2021/04/05 11:15:01;;;;;;;19.45;11.73;;;;;;;6.78;68.22;98898.72;1740673;82;21009;-73
2021/04/05 11:17:50;;;;;;;20.70;12.20;;;;;;;6.74;68.13;98890.73;1735596;82;21123;-73
2021/04/05 11:20:39;;;;;;;20.32;12.78;;;;;;;6.67;68.29;98890.06;1741625;82;21406;-73
2021/04/05 11:23:28;;;;;;;18.70;12.15;;;;;;;6.70;68.52;98877.13;1739188;82;20969;-73
2021/04/05 11:26:14;;;;;;;14.55;10.80;;;;;;;6.67;68.43;98880.23;1736839;80;21112;-73
2021/04/05 11:29:03;;;;;;;18.57;11.93;;;;;;;6.63;68.45;98875.18;1740866;80;21131;-74
2021/04/05 11:31:50;;;;;;;16.67;10.55;;;;;;;6.61;68.56;98874.38;1680034;84;21231;-73
2021/04/05 11:34:40;;;;;;;16.23;10.80;;;;;;;6.66;68.65;98874.70;1728739;82;21501;-73
2021/04/05 11:37:35;;;;;;;16.10;11.88;;;;;;;6.68;68.81;98860.09;1738645;82;21090;-73
2021/04/05 11:40:22;;;;;;;21.50;12.25;;;;;;;6.74;68.90;98866.33;1726318;82;21207;-74
2021/04/05 11:43:20;;;;;;;17.77;10.68;;;;;;;6.78;68.95;98866.61;1670468;85;21234;-73
2021/04/05 11:46:11;;;;;;;17.42;11.00;;;;;;;6.75;68.79;98865.45;1733942;81;21474;-73
2021/04/05 11:49:04;;;;;;;15.78;11.48;;;;;;;6.69;68.83;98863.05;1732445;82;21179;-73
2021/04/05 11:52:16;;;;;;;15.72;10.70;;;;;;;6.66;68.86;98873.41;1733624;82;21065;-73
2021/04/05 11:55:08;;;;;;;14.05;9.40;;;;;;;6.54;68.89;98872.86;1720053;82;21622;-74
2021/04/05 11:58:07;;;;;;;13.83;10.35;;;;;;;6.46;68.96;98876.52;1737331;82;20982;-73
2021/04/05 12:01:01;;;;;;;14.05;9.78;;;;;;;6.39;69.03;98875.00;1724596;82;21002;-72
2021/04/05 12:03:49;;;;;;;12.55;8.80;;;;;;;6.34;69.01;98864.86;1729376;82;20989;-72
2021/04/05 12:06:38;;;;;;;9.20;7.80;;;;;;;6.28;69.11;98874.00;1730311;82;21140;-72
2021/04/05 12:09:59;;;;;;;9.25;7.58;;;;;;;6.21;69.17;98866.09;1718345;82;21131;-73
2021/04/05 12:13:02;;;;;;;14.70;8.83;;;;;;;6.14;69.11;98872.27;1730665;82;21136;-73
2021/04/05 12:15:57;;;;;;;6.67;4.97;;;;;;;5.95;69.21;98884.28;1736277;82;21131;-72
2021/04/05 12:18:44;;;;;;;4.10;3.00;;;;;;;5.82;69.12;98924.34;1724134;82;20985;-72
2021/04/05 12:21:33;;;;;;;3.30;2.50;;;;;;;5.55;68.89;98935.67;1738457;82;21426;-72
2021/04/05 12:24:28;;;;;;;2.95;2.17;;;;;;;5.33;68.82;98942.98;1727441;82;21371;-73
2021/04/05 12:27:13;;;;;;;2.65;1.85;;;;;;;5.21;69.11;98936.84;1742402;80;21124;-73
2021/04/05 12:30:04;;;;;;;2.95;2.02;;;;;;;5.10;68.98;98941.81;1726144;82;20993;-72
2021/04/05 12:32:50;;;;;;;2.62;1.75;;;;;;;4.97;69.00;98961.27;1742735;81;21227;-72
2021/04/05 12:35:36;;;;;;;2.15;1.42;;;;;;;4.82;69.08;98953.04;1727488;82;21065;-72
2021/04/05 12:38:36;;;;;;;1.98;1.60;;;;;;;4.75;69.34;98960.43;1741117;82;21478;-72
2021/04/05 12:41:20;;;;;;;2.77;1.40;;;;;;;4.73;69.35;98966.02;1737941;81;21211;-72
2021/04/05 12:44:10;;;;;;;1.92;1.50;;;;;;;4.72;69.40;98970.73;1728687;80;21195;-72
2021/04/05 12:46:58;;;;;;;1.20;1.10;;;;;;;4.65;69.33;98957.23;1741359;82;21211;-72
2021/04/05 12:49:46;;;;;;;4.92;1.70;;;;;;;4.57;69.38;98961.64;1711991;82;21545;-73
2021/04/05 12:52:38;;;;;;;3.37;1.37;;;;;;;4.54;69.40;98960.42;1731820;82;21648;-72
2021/04/05 12:55:24;;;;;;;1.40;1.17;;;;;;;4.52;69.42;98959.61;1731921;81;21179;-72
2021/04/05 12:58:10;;;;;;;;;;;;;;;4.46;69.24;98950.75;1744271;80;21145;-72